Time;durP1;ratioP1;P1;durP2;ratioP2;P2;SDS_P1;SDS_P2;PMS_P1;PMS_P2;Temp;Humidity;BMP_temperature;BMP_pressure;BME280_temperature;BME280_humidity;BME280_pressure;Samples;Min_cycle;Max_cycle;Signal;HPM_P1;HPM_P2
2021/10/01 00:01:20;;;;;;;2.25;1.60;;;;;;;;;;5033641;28;20219;-42
2021/10/01 00:03:46;;;;;;;2.00;1.77;;;;;;;;;;5030073;28;20211;-42
2021/10/01 00:06:12;;;;;;;2.05;1.50;;;;;;;;;;5033911;28;20698;-42
2021/10/01 00:08:38;;;;;;;1.55;1.40;;;;;;;;;;5027551;28;20180;-42
2021/10/01 00:11:04;;;;;;;1.92;1.33;;;;;;;;;;5018785;28;20188;-42
2021/10/01 00:13:30;;;;;;;1.85;1.50;;;;;;;;;;5026051;28;20175;-41
2021/10/01 00:15:56;;;;;;;1.38;1.20;;;;;;;;;;5034304;28;20194;-42
2021/10/01 00:18:22;;;;;;;1.90;1.35;;;;;;;;;;5033841;28;20180;-42
2021/10/01 00:20:48;;;;;;;1.63;1.25;;;;;;;;;;5019137;28;20180;-42
2021/10/01 00:23:14;;;;;;;1.50;1.40;;;;;;;;;;5014476;28;20227;-42
2021/10/01 00:25:40;;;;;;;2.20;1.48;;;;;;;;;;5016941;28;20207;-42
2021/10/01 00:28:06;;;;;;;2.33;1.20;;;;;;;;;;5022651;28;20259;-42
2021/10/01 00:30:32;;;;;;;1.65;1.45;;;;;;;;;;5030055;28;20272;-42
2021/10/01 00:32:59;;;;;;;1.45;1.33;;;;;;;;;;5017398;28;20214;-42
2021/10/01 00:35:25;;;;;;;2.35;1.67;;;;;;;;;;5032552;28;20168;-42
2021/10/01 00:37:51;;;;;;;2.08;1.58;;;;;;;;;;5015173;28;20182;-42
2021/10/01 00:40:17;;;;;;;2.60;1.52;;;;;;;;;;5014977;28;20187;-42
2021/10/01 00:42:43;;;;;;;3.45;1.20;;;;;;;;;;5026421;28;20176;-42
2021/10/01 00:45:10;;;;;;;1.95;1.40;;;;;;;;;;5034334;28;20245;-42
2021/10/01 00:47:36;;;;;;;2.30;1.35;;;;;;;;;;5033732;28;20321;-42
2021/10/01 00:50:03;;;;;;;2.40;1.20;;;;;;;;;;5034280;28;20183;-42
2021/10/01 00:52:29;;;;;;;2.45;1.25;;;;;;;;;;5034424;28;20168;-42
2021/10/01 00:54:55;;;;;;;1.20;1.10;;;;;;;;;;5021892;28;20184;-42
2021/10/01 00:57:21;;;;;;;1.38;1.23;;;;;;;;;;5016885;28;20643;-42
2021/10/01 00:59:46;;;;;;;1.80;1.48;;;;;;;;;;5030650;28;20200;-42
2021/10/01 01:02:13;;;;;;;1.35;1.25;;;;;;;;;;5027182;28;20208;-42
2021/10/01 01:04:41;;;;;;;2.05;1.55;;;;;;;;;;5035845;28;20231;-41
2021/10/01 01:07:22;;;;;;;2.28;1.17;;;;;;;;;;5022003;28;20537;-41
2021/10/01 01:09:54;;;;;;;1.45;1.25;;;;;;;;;;5018494;28;20194;-42
2021/10/01 01:12:30;;;;;;;1.73;1.40;;;;;;;;;;5018484;28;20173;-41
2021/10/01 01:15:15;;;;;;;1.90;1.33;;;;;;;;;;5031425;28;20230;-41
2021/10/01 01:17:43;;;;;;;1.80;1.30;;;;;;;;;;5037106;28;20194;-42
2021/10/01 01:20:20;;;;;;;2.17;1.17;;;;;;;;;;5030424;28;20173;-41
2021/10/01 01:22:58;;;;;;;2.00;1.35;;;;;;;;;;5037952;28;20539;-41
2021/10/01 01:25:43;;;;;;;2.40;1.10;;;;;;;;;;5032967;28;20322;-41
2021/10/01 01:28:12;;;;;;;2.17;1.10;;;;;;;;;;5024895;28;20175;-42
2021/10/01 01:30:39;;;;;;;1.17;1.05;;;;;;;;;;5023034;28;20559;-41
2021/10/01 01:33:07;;;;;;;3.00;1.40;;;;;;;;;;5021317;28;20176;-41
2021/10/01 01:35:35;;;;;;;2.75;1.30;;;;;;;;;;5036986;28;20172;-42
2021/10/01 01:38:12;;;;;;;3.42;1.42;;;;;;;;;;5026188;28;20176;-41
2021/10/01 01:40:39;;;;;;;2.75;1.10;;;;;;;;;;5021203;28;20246;-41
2021/10/01 01:43:07;;;;;;;1.52;1.20;;;;;;;;;;5035451;28;20180;-42
2021/10/01 01:45:36;;;;;;;1.30;1.20;;;;;;;;;;5037503;28;20168;-41
2021/10/01 01:48:04;;;;;;;1.65;1.20;;;;;;;;;;5025144;28;20175;-41
2021/10/01 01:50:30;;;;;;;1.13;0.90;;;;;;;;;;5017809;28;20177;-41
2021/10/01 01:52:57;;;;;;;3.15;1.20;;;;;;;;;;5018534;28;20567;-41
2021/10/01 01:55:24;;;;;;;1.35;1.25;;;;;;;;;;5028792;28;20188;-41
2021/10/01 01:57:51;;;;;;;1.33;1.00;;;;;;;;;;5030354;28;20472;-41
2021/10/01 02:00:17;;;;;;;1.73;0.90;;;;;;;;;;5030404;28;20338;-41
2021/10/01 02:02:43;;;;;;;1.83;1.00;;;;;;;;;;5018297;28;20212;-41
2021/10/01 02:05:10;;;;;;;1.40;0.95;;;;;;;;;;5035073;28;20214;-41
2021/10/01 02:07:37;;;;;;;1.48;0.85;;;;;;;;;;5018862;28;20210;-41
2021/10/01 02:10:04;;;;;;;1.35;1.00;;;;;;;;;;5017438;28;20599;-41
2021/10/01 02:12:30;;;;;;;1.50;0.90;;;;;;;;;;5035627;28;20218;-41
2021/10/01 02:14:58;;;;;;;2.60;1.00;;;;;;;;;;5035654;28;20176;-41
2021/10/01 02:17:24;;;;;;;1.80;1.00;;;;;;;;;;5024465;28;20576;-41
2021/10/01 02:19:51;;;;;;;2.75;1.08;;;;;;;;;;5036356;28;20172;-41
2021/10/01 02:22:18;;;;;;;1.88;1.17;;;;;;;;;;5036706;28;20453;-41
2021/10/01 02:24:44;;;;;;;1.35;1.00;;;;;;;;;;5035782;28;20201;-41
2021/10/01 02:27:15;;;;;;;1.48;0.95;;;;;;;;;;5031220;28;20190;-41
2021/10/01 02:29:41;;;;;;;1.75;1.10;;;;;;;;;;5017210;28;20180;-41
2021/10/01 02:32:18;;;;;;;1.42;0.98;;;;;;;;;;5016911;28;20555;-41
2021/10/01 02:34:46;;;;;;;2.95;1.25;;;;;;;;;;5016577;28;20172;-41
2021/10/01 02:37:13;;;;;;;0.70;0.70;;;;;;;;;;5029243;28;20184;-42
2021/10/01 02:39:41;;;;;;;3.42;1.00;;;;;;;;;;5020491;28;20229;-42
2021/10/01 02:42:08;;;;;;;1.70;0.95;;;;;;;;;;5016882;28;20215;-42
2021/10/01 02:44:34;;;;;;;1.50;1.00;;;;;;;;;;5015837;28;20204;-42
2021/10/01 02:47:00;;;;;;;0.93;0.93;;;;;;;;;;5021348;28;20196;-41
2021/10/01 02:49:27;;;;;;;2.85;0.85;;;;;;;;;;5027315;28;20191;-42
2021/10/01 02:51:56;;;;;;;2.50;0.95;;;;;;;;;;5030235;28;20180;-42
2021/10/01 02:54:34;;;;;;;0.85;0.75;;;;;;;;;;5022989;28;20188;-42
2021/10/01 02:57:07;;;;;;;2.55;1.10;;;;;;;;;;5024718;28;20298;-41
2021/10/01 02:59:38;;;;;;;1.63;0.80;;;;;;;;;;5030536;28;20216;-41
2021/10/01 03:02:05;;;;;;;1.30;0.95;;;;;;;;;;5016243;28;20307;-41
2021/10/01 03:04:31;;;;;;;0.80;0.77;;;;;;;;;;5029820;28;20470;-42
2021/10/01 03:06:58;;;;;;;0.60;0.60;;;;;;;;;;5028532;28;20235;-42
2021/10/01 03:09:28;;;;;;;0.93;0.90;;;;;;;;;;5019737;28;20847;-41
2021/10/01 03:11:56;;;;;;;2.28;0.80;;;;;;;;;;5031116;28;20172;-41
2021/10/01 03:14:22;;;;;;;1.38;1.00;;;;;;;;;;5020603;28;20179;-41
2021/10/01 03:16:49;;;;;;;1.75;1.05;;;;;;;;;;5022099;28;20175;-41
2021/10/01 03:19:17;;;;;;;2.08;1.00;;;;;;;;;;5031153;28;20211;-41
2021/10/01 03:21:43;;;;;;;1.98;0.90;;;;;;;;;;5019842;28;20476;-41
2021/10/01 03:24:09;;;;;;;2.25;1.10;;;;;;;;;;5016066;28;20595;-42
2021/10/01 03:26:36;;;;;;;2.38;1.20;;;;;;;;;;5015862;28;20184;-41
2021/10/01 03:29:03;;;;;;;2.15;1.08;;;;;;;;;;5019216;28;20181;-41
2021/10/01 03:31:29;;;;;;;1.42;1.20;;;;;;;;;;5015889;28;20956;-42
2021/10/01 03:33:56;;;;;;;2.13;1.00;;;;;;;;;;5015594;28;20211;-42
2021/10/01 03:36:22;;;;;;;1.48;0.90;;;;;;;;;;5027502;28;20262;-41
2021/10/01 03:38:48;;;;;;;1.33;1.10;;;;;;;;;;5024643;28;20609;-41
2021/10/01 03:41:15;;;;;;;1.45;1.00;;;;;;;;;;5021039;28;20176;-42
2021/10/01 03:43:41;;;;;;;2.20;0.90;;;;;;;;;;5035107;28;20614;-41
2021/10/01 03:46:07;;;;;;;1.60;1.10;;;;;;;;;;5033431;28;20208;-42
2021/10/01 03:48:34;;;;;;;1.20;0.90;;;;;;;;;;5024544;28;20183;-41
2021/10/01 03:51:00;;;;;;;1.02;0.90;;;;;;;;;;5025509;28;20180;-42
2021/10/01 03:53:26;;;;;;;1.23;1.13;;;;;;;;;;5015096;28;20438;-41
2021/10/01 03:55:52;;;;;;;1.38;1.05;;;;;;;;;;5033661;28;20255;-42
2021/10/01 03:58:18;;;;;;;1.80;0.80;;;;;;;;;;5032395;28;20180;-42
2021/10/01 04:00:45;;;;;;;1.63;0.82;;;;;;;;;;5029276;28;20220;-42
2021/10/01 04:03:11;;;;;;;2.08;1.15;;;;;;;;;;5019431;28;20226;-41
2021/10/01 04:05:38;;;;;;;1.13;0.95;;;;;;;;;;5028326;28;20207;-41
2021/10/01 04:08:11;;;;;;;3.35;1.00;;;;;;;;;;5018271;28;20295;-41
2021/10/01 04:10:38;;;;;;;5.43;1.58;;;;;;;;;;5014967;28;20199;-41
2021/10/01 04:13:06;;;;;;;3.42;1.40;;;;;;;;;;5014687;28;20185;-42
2021/10/01 04:15:32;;;;;;;2.22;1.27;;;;;;;;;;5015067;28;20204;-42
2021/10/01 04:17:59;;;;;;;5.75;1.35;;;;;;;;;;5018143;28;20180;-42
2021/10/01 04:20:25;;;;;;;2.80;1.13;;;;;;;;;;5033822;28;20172;-41
2021/10/01 04:22:51;;;;;;;2.08;1.00;;;;;;;;;;5034310;28;20175;-41
2021/10/01 04:25:17;;;;;;;5.22;1.30;;;;;;;;;;5034370;28;20215;-41
2021/10/01 04:27:43;;;;;;;2.72;1.17;;;;;;;;;;5032812;28;20238;-41
2021/10/01 04:30:10;;;;;;;8.02;2.10;;;;;;;;;;5014961;28;20185;-42
2021/10/01 04:32:39;;;;;;;10.73;2.20;;;;;;;;;;5014156;28;20184;-42
2021/10/01 04:35:08;;;;;;;9.43;1.98;;;;;;;;;;5015037;28;20172;-42
2021/10/01 04:37:34;;;;;;;9.18;1.92;;;;;;;;;;5028323;28;20195;-42
2021/10/01 04:40:00;;;;;;;5.00;1.80;;;;;;;;;;5032442;28;20237;-41
2021/10/01 04:42:26;;;;;;;6.05;1.58;;;;;;;;;;5028608;28;20187;-42
2021/10/01 04:44:53;;;;;;;4.70;1.50;;;;;;;;;;5033784;28;20203;-42
2021/10/01 04:47:19;;;;;;;4.20;1.77;;;;;;;;;;5027233;28;20187;-42
2021/10/01 04:49:45;;;;;;;4.10;1.85;;;;;;;;;;5031340;28;20183;-41
2021/10/01 04:52:11;;;;;;;7.80;2.80;;;;;;;;;;5032750;28;20464;-42
2021/10/01 04:54:37;;;;;;;4.47;2.40;;;;;;;;;;5026636;28;20180;-41
2021/10/01 04:57:03;;;;;;;8.18;2.25;;;;;;;;;;5033486;28;20172;-41
2021/10/01 04:59:29;;;;;;;6.03;2.00;;;;;;;;;;5019633;28;20181;-41
2021/10/01 05:01:55;;;;;;;4.47;1.67;;;;;;;;;;5026712;28;20701;-41
2021/10/01 05:04:22;;;;;;;2.83;1.40;;;;;;;;;;5028083;28;20203;-41
2021/10/01 05:06:48;;;;;;;3.53;1.40;;;;;;;;;;5033276;28;20186;-41
2021/10/01 05:09:14;;;;;;;2.75;1.55;;;;;;;;;;5025614;28;20219;-41
2021/10/01 05:11:40;;;;;;;3.60;1.60;;;;;;;;;;5022366;28;20210;-41
2021/10/01 05:14:06;;;;;;;4.32;2.35;;;;;;;;;;5033839;28;20180;-41
2021/10/01 05:16:32;;;;;;;4.40;2.20;;;;;;;;;;5033869;28;20263;-41
2021/10/01 05:18:58;;;;;;;3.35;2.00;;;;;;;;;;5014649;28;20172;-41
2021/10/01 05:21:24;;;;;;;4.55;1.80;;;;;;;;;;5014183;28;20180;-41
2021/10/01 05:23:50;;;;;;;4.05;3.00;;;;;;;;;;5013969;28;20240;-41
2021/10/01 05:26:16;;;;;;;5.65;3.85;;;;;;;;;;5014239;28;20176;-41
2021/10/01 05:28:42;;;;;;;5.60;4.60;;;;;;;;;;5031196;28;20186;-41
2021/10/01 05:31:08;;;;;;;6.63;5.30;;;;;;;;;;5029865;28;20176;-41
2021/10/01 05:33:34;;;;;;;3.55;2.72;;;;;;;;;;5033148;28;20191;-41
2021/10/01 05:36:00;;;;;;;3.45;3.00;;;;;;;;;;5032176;28;20184;-42
2021/10/01 05:38:26;;;;;;;3.58;3.15;;;;;;;;;;5014508;28;20259;-41
2021/10/01 05:40:53;;;;;;;5.32;3.60;;;;;;;;;;5021163;28;20183;-41
2021/10/01 05:43:24;;;;;;;4.55;3.35;;;;;;;;;;5033499;28;20203;-41
2021/10/01 05:45:53;;;;;;;6.80;2.72;;;;;;;;;;5033394;28;20779;-42
2021/10/01 05:48:19;;;;;;;4.05;2.67;;;;;;;;;;5027654;28;20211;-42
2021/10/01 05:50:52;;;;;;;4.78;2.47;;;;;;;;;;5017068;28;20181;-42
2021/10/01 05:56:11;;;;;;;3.92;2.13;;;;;;;;;;5028275;28;20620;-41
2021/10/01 05:58:38;;;;;;;3.90;2.65;;;;;;;;;;5036622;28;20264;-41
2021/10/01 06:01:04;;;;;;;6.03;2.67;;;;;;;;;;5017696;28;20543;-41
2021/10/01 06:03:30;;;;;;;5.45;2.58;;;;;;;;;;5035176;28;20184;-42
2021/10/01 06:05:56;;;;;;;3.95;2.22;;;;;;;;;;5040485;28;20275;-41
2021/10/01 06:08:22;;;;;;;3.08;1.98;;;;;;;;;;5042498;28;20263;-41
2021/10/01 06:10:49;;;;;;;2.75;2.22;;;;;;;;;;5047045;28;20182;-41
2021/10/01 06:13:15;;;;;;;5.68;2.75;;;;;;;;;;5034782;28;20176;-42
2021/10/01 06:15:41;;;;;;;4.80;2.45;;;;;;;;;;5045934;28;20229;-41
2021/10/01 06:18:07;;;;;;;2.97;2.03;;;;;;;;;;5042140;28;20179;-41
2021/10/01 06:20:33;;;;;;;3.22;2.30;;;;;;;;;;5043318;28;20500;-42
2021/10/01 06:22:59;;;;;;;3.38;2.33;;;;;;;;;;5036135;28;20202;-42
2021/10/01 06:25:25;;;;;;;3.55;2.10;;;;;;;;;;5043271;28;20211;-41
2021/10/01 06:27:51;;;;;;;3.03;1.85;;;;;;;;;;5045481;28;20179;-41
2021/10/01 06:30:18;;;;;;;2.90;1.95;;;;;;;;;;5038122;28;20187;-42
2021/10/01 06:32:44;;;;;;;3.70;1.90;;;;;;;;;;5038328;28;20231;-42
2021/10/01 06:35:10;;;;;;;1.55;1.45;;;;;;;;;;5020115;28;20175;-42
2021/10/01 06:37:37;;;;;;;5.22;2.00;;;;;;;;;;5030913;28;20188;-42
2021/10/01 06:40:03;;;;;;;4.43;2.10;;;;;;;;;;5040816;28;20482;-41
2021/10/01 06:42:30;;;;;;;2.05;1.65;;;;;;;;;;5040143;28;20180;-41
2021/10/01 06:44:59;;;;;;;2.58;1.80;;;;;;;;;;5035791;28;20192;-41
2021/10/01 06:47:35;;;;;;;2.50;1.90;;;;;;;;;;5021015;28;20503;-41
2021/10/01 08:20:27;;;;;;;1.23;1.00;;;;;;;;;;5032273;28;20190;-41
2021/10/01 08:22:53;;;;;;;1.67;1.10;;;;;;;;;;5031573;28;20473;-41
2021/10/01 08:25:19;;;;;;;1.25;0.93;;;;;;;;;;5033534;28;20203;-41
2021/10/01 08:27:45;;;;;;;1.33;1.13;;;;;;;;;;5031683;28;20458;-41
2021/10/01 08:30:11;;;;;;;0.90;0.90;;;;;;;;;;5034734;28;20186;-41
2021/10/01 08:32:38;;;;;;;0.82;0.80;;;;;;;;;;5033652;28;20208;-41
2021/10/01 08:35:04;;;;;;;1.42;1.10;;;;;;;;;;5023863;28;20190;-41
2021/10/01 08:37:30;;;;;;;0.85;0.85;;;;;;;;;;5015072;28;20184;-42
2021/10/01 08:39:56;;;;;;;1.88;1.02;;;;;;;;;;5014714;28;20177;-41
2021/10/01 08:42:23;;;;;;;1.65;0.77;;;;;;;;;;5014709;28;20543;-41
2021/10/01 08:44:49;;;;;;;1.85;1.00;;;;;;;;;;5021715;28;20216;-41
2021/10/01 08:47:16;;;;;;;1.73;0.93;;;;;;;;;;5033971;28;20172;-41
2021/10/01 08:49:47;;;;;;;2.33;0.90;;;;;;;;;;5034553;28;20168;-41
2021/10/01 08:52:13;;;;;;;2.22;1.20;;;;;;;;;;5034102;28;20206;-41
2021/10/01 08:54:41;;;;;;;2.35;0.95;;;;;;;;;;5033040;28;20187;-41
2021/10/01 08:57:08;;;;;;;1.77;0.90;;;;;;;;;;5034469;28;20254;-41
2021/10/01 08:59:34;;;;;;;1.88;1.00;;;;;;;;;;5034381;28;20185;-41
2021/10/01 09:02:00;;;;;;;2.00;1.00;;;;;;;;;;5034653;28;20182;-42
2021/10/01 09:04:26;;;;;;;3.40;0.85;;;;;;;;;;5032927;28;20222;-42
2021/10/01 09:06:55;;;;;;;1.00;0.70;;;;;;;;;;5033450;28;20194;-41
2021/10/01 09:09:29;;;;;;;2.60;0.90;;;;;;;;;;5033423;28;20267;-42
2021/10/01 09:12:01;;;;;;;3.15;1.00;;;;;;;;;;5034502;28;20170;-42
2021/10/01 09:14:27;;;;;;;2.03;1.17;;;;;;;;;;5031730;28;20175;-41
2021/10/01 09:16:53;;;;;;;2.35;0.90;;;;;;;;;;5034080;28;20172;-42
2021/10/01 09:19:20;;;;;;;1.10;1.00;;;;;;;;;;5023441;28;20267;-42
2021/10/01 09:21:47;;;;;;;3.15;0.90;;;;;;;;;;5022285;28;20185;-41
2021/10/01 09:24:14;;;;;;;1.52;0.98;;;;;;;;;;5014080;28;20216;-41
2021/10/01 09:26:48;;;;;;;1.80;0.90;;;;;;;;;;5018857;28;20252;-42
2021/10/01 09:29:23;;;;;;;0.70;0.70;;;;;;;;;;5036861;28;20253;-41
2021/10/01 09:31:49;;;;;;;3.72;0.90;;;;;;;;;;5022979;28;20180;-41
2021/10/01 09:34:35;;;;;;;0.82;0.60;;;;;;;;;;5016642;28;20364;-41
2021/10/01 09:37:03;;;;;;;1.60;0.80;;;;;;;;;;5016743;28;20184;-41
2021/10/01 09:39:31;;;;;;;0.77;0.73;;;;;;;;;;5016625;28;20233;-42
2021/10/01 09:41:59;;;;;;;1.92;0.90;;;;;;;;;;5016465;28;20571;-42
2021/10/01 09:44:29;;;;;;;1.02;0.70;;;;;;;;;;5015773;28;20212;-42
2021/10/01 09:46:55;;;;;;;1.20;0.90;;;;;;;;;;5021389;28;20192;-41
2021/10/01 09:49:32;;;;;;;1.65;0.80;;;;;;;;;;5030253;28;20567;-41
2021/10/01 09:51:59;;;;;;;1.05;0.60;;;;;;;;;;5018867;28;20242;-41
2021/10/01 09:54:26;;;;;;;0.65;0.65;;;;;;;;;;5023698;28;20176;-42
2021/10/01 09:56:54;;;;;;;1.13;0.90;;;;;;;;;;5021523;28;20187;-41
2021/10/01 09:59:20;;;;;;;2.60;0.70;;;;;;;;;;5017804;28;20172;-41
2021/10/01 10:02:04;;;;;;;1.70;0.85;;;;;;;;;;5017714;28;20504;-42
2021/10/01 10:04:34;;;;;;;0.70;0.70;;;;;;;;;;5031818;28;20199;-41
2021/10/01 10:07:07;;;;;;;1.60;0.60;;;;;;;;;;5020044;28;20180;-41
2021/10/01 10:09:38;;;;;;;1.60;0.80;;;;;;;;;;5017268;28;20571;-42
2021/10/01 10:12:04;;;;;;;2.30;0.80;;;;;;;;;;5034352;28;20199;-42
2021/10/01 10:14:35;;;;;;;3.03;0.77;;;;;;;;;;5034767;28;20172;-41
2021/10/01 10:17:01;;;;;;;1.58;0.65;;;;;;;;;;5025033;28;20177;-41
2021/10/01 10:19:30;;;;;;;0.60;0.40;;;;;;;;;;5026341;28;20535;-42
2021/10/01 10:21:57;;;;;;;1.27;0.77;;;;;;;;;;5026718;28;20171;-42
2021/10/01 10:24:23;;;;;;;0.90;0.70;;;;;;;;;;5034850;28;20286;-42
2021/10/01 10:26:49;;;;;;;1.48;0.68;;;;;;;;;;5032895;28;20179;-42
2021/10/01 10:29:15;;;;;;;0.75;0.70;;;;;;;;;;5016184;28;20172;-42
2021/10/01 10:31:46;;;;;;;1.02;0.70;;;;;;;;;;5017059;28;20160;-42
2021/10/01 10:34:20;;;;;;;1.33;0.88;;;;;;;;;;5016550;28;20564;-41
2021/10/01 10:36:47;;;;;;;0.82;0.80;;;;;;;;;;5035283;28;20495;-41
2021/10/01 10:39:15;;;;;;;1.60;0.65;;;;;;;;;;5036458;28;20218;-41
2021/10/01 10:41:41;;;;;;;0.88;0.40;;;;;;;;;;5036711;28;20182;-42
2021/10/01 10:44:07;;;;;;;1.55;0.70;;;;;;;;;;5036091;28;20207;-42
2021/10/01 10:46:36;;;;;;;1.25;0.73;;;;;;;;;;5017607;28;20190;-41
2021/10/01 10:49:18;;;;;;;1.30;0.80;;;;;;;;;;5016496;28;20200;-41
2021/10/01 10:52:12;;;;;;;1.20;0.80;;;;;;;;;;5016738;28;20507;-42
2021/10/01 10:54:40;;;;;;;1.35;0.70;;;;;;;;;;5022131;28;20191;-42
2021/10/01 10:57:25;;;;;;;1.83;0.80;;;;;;;;;;5019130;28;20195;-41
2021/10/01 11:00:02;;;;;;;1.13;0.63;;;;;;;;;;5016579;28;20184;-41
2021/10/01 11:02:41;;;;;;;1.85;0.52;;;;;;;;;;5017847;28;20184;-41
2021/10/01 11:05:19;;;;;;;0.68;0.60;;;;;;;;;;5032521;28;20298;-41
2021/10/01 11:08:01;;;;;;;0.90;0.70;;;;;;;;;;5034922;28;20179;-41
2021/10/01 11:10:36;;;;;;;1.98;0.57;;;;;;;;;;5031835;28;20169;-41
2021/10/01 11:13:22;;;;;;;0.77;0.77;;;;;;;;;;5015873;28;20211;-41
2021/10/01 11:16:13;;;;;;;1.75;0.80;;;;;;;;;;5023212;28;20211;-42
2021/10/01 11:18:45;;;;;;;0.93;0.68;;;;;;;;;;5033904;28;20617;-41
2021/10/01 11:21:29;;;;;;;2.05;0.70;;;;;;;;;;5030698;28;20436;-42
2021/10/01 11:24:15;;;;;;;1.65;0.60;;;;;;;;;;5014738;28;20227;-42
2021/10/01 11:26:46;;;;;;;1.85;0.68;;;;;;;;;;5032709;28;20175;-42
2021/10/01 11:29:27;;;;;;;0.60;0.52;;;;;;;;;;5035845;28;20180;-42
2021/10/01 11:31:55;;;;;;;2.08;0.60;;;;;;;;;;5034698;28;20534;-42
2021/10/01 11:34:40;;;;;;;1.00;0.88;;;;;;;;;;5035011;28;20172;-42
2021/10/01 11:37:25;;;;;;;1.48;0.70;;;;;;;;;;5020446;28;20191;-41
2021/10/01 11:39:52;;;;;;;0.57;0.52;;;;;;;;;;5035336;28;20172;-41
2021/10/01 11:42:28;;;;;;;1.83;0.60;;;;;;;;;;5016422;28;20200;-42
2021/10/01 11:44:54;;;;;;;1.60;0.60;;;;;;;;;;5015986;28;20212;-41
2021/10/01 11:47:21;;;;;;;0.40;0.40;;;;;;;;;;5021759;28;20536;-41
2021/10/01 11:49:58;;;;;;;0.82;0.60;;;;;;;;;;5016180;28;20234;-41
2021/10/01 11:52:26;;;;;;;1.30;0.50;;;;;;;;;;5037430;28;20485;-42
2021/10/01 11:54:53;;;;;;;1.30;0.60;;;;;;;;;;5029276;28;20481;-41
2021/10/01 11:57:20;;;;;;;1.23;0.50;;;;;;;;;;5026817;28;20295;-41
2021/10/01 11:59:53;;;;;;;1.90;0.60;;;;;;;;;;5015214;28;20219;-41
2021/10/01 12:02:27;;;;;;;0.50;0.43;;;;;;;;;;5037138;28;20203;-41
2021/10/01 12:04:53;;;;;;;1.40;0.50;;;;;;;;;;5027207;28;20204;-41
2021/10/01 12:07:19;;;;;;;1.60;0.77;;;;;;;;;;5028897;28;20187;-42
2021/10/01 12:10:00;;;;;;;2.55;0.75;;;;;;;;;;5016051;28;20537;-41
2021/10/01 12:12:26;;;;;;;2.15;0.70;;;;;;;;;;5016200;28;20168;-41
2021/10/01 12:14:52;;;;;;;0.80;0.68;;;;;;;;;;5024358;28;20176;-42
2021/10/01 12:17:18;;;;;;;1.33;0.80;;;;;;;;;;5034771;28;20176;-42
2021/10/01 12:19:44;;;;;;;2.05;0.82;;;;;;;;;;5040067;28;20210;-41
2021/10/01 12:22:12;;;;;;;3.00;0.63;;;;;;;;;;5034457;28;20262;-41
2021/10/01 12:24:42;;;;;;;3.10;0.77;;;;;;;;;;5025423;28;20200;-42
2021/10/01 12:27:08;;;;;;;2.22;0.75;;;;;;;;;;5034810;28;20164;-41
2021/10/01 12:29:41;;;;;;;4.40;0.82;;;;;;;;;;5034922;28;20168;-41
2021/10/01 12:32:07;;;;;;;0.50;0.50;;;;;;;;;;5033871;28;20176;-41
2021/10/01 12:34:33;;;;;;;0.52;0.50;;;;;;;;;;5022584;28;20438;-42
2021/10/01 12:37:07;;;;;;;4.10;0.80;;;;;;;;;;5017891;28;20193;-42
2021/10/01 12:39:35;;;;;;;0.57;0.57;;;;;;;;;;5027125;28;20180;-42
2021/10/01 12:42:04;;;;;;;0.50;0.50;;;;;;;;;;5034283;28;20195;-42
2021/10/01 12:44:38;;;;;;;0.40;0.40;;;;;;;;;;5024538;28;20238;-42
2021/10/01 12:47:14;;;;;;;0.52;0.52;;;;;;;;;;5015007;28;20190;-41
2021/10/01 12:49:40;;;;;;;1.58;0.77;;;;;;;;;;5014905;28;20530;-42
2021/10/01 12:52:11;;;;;;;1.58;0.50;;;;;;;;;;5014533;28;20181;-42
2021/10/01 12:54:44;;;;;;;0.80;0.50;;;;;;;;;;5023076;28;20191;-42
2021/10/01 12:57:16;;;;;;;1.23;0.52;;;;;;;;;;5032851;28;20752;-42
2021/10/01 12:59:52;;;;;;;0.75;0.50;;;;;;;;;;5034918;28;20310;-42
2021/10/01 13:02:20;;;;;;;1.20;0.47;;;;;;;;;;5033031;28;20215;-41
2021/10/01 13:04:53;;;;;;;1.15;0.70;;;;;;;;;;5035022;28;20203;-42
2021/10/01 13:07:23;;;;;;;3.22;0.70;;;;;;;;;;5038555;28;20187;-42
2021/10/01 13:09:49;;;;;;;1.42;0.70;;;;;;;;;;5026330;28;20467;-41
2021/10/01 13:12:47;;;;;;;0.60;0.60;;;;;;;;;;5023081;28;20180;-41
2021/10/01 13:15:14;;;;;;;2.20;0.70;;;;;;;;;;5013929;28;20233;-41
2021/10/01 13:17:41;;;;;;;0.93;0.80;;;;;;;;;;5022102;28;20181;-41
2021/10/01 13:20:07;;;;;;;1.95;0.50;;;;;;;;;;5018503;28;20279;-41
2021/10/01 13:22:52;;;;;;;0.98;0.70;;;;;;;;;;5026143;28;20501;-41
2021/10/01 13:25:25;;;;;;;1.95;0.82;;;;;;;;;;5032418;28;20193;-41
2021/10/01 13:27:55;;;;;;;1.38;0.70;;;;;;;;;;5028483;28;20247;-41
2021/10/01 13:30:21;;;;;;;0.95;0.63;;;;;;;;;;5036856;28;20176;-41
2021/10/01 13:32:48;;;;;;;0.45;0.45;;;;;;;;;;5027256;28;20176;-41
2021/10/01 13:35:15;;;;;;;1.10;0.70;;;;;;;;;;5030434;28;20188;-42
2021/10/01 13:37:43;;;;;;;0.70;0.60;;;;;;;;;;5027566;28;20236;-42
2021/10/01 13:40:10;;;;;;;1.85;0.70;;;;;;;;;;5030922;28;20200;-42
2021/10/01 13:42:36;;;;;;;1.10;0.50;;;;;;;;;;5032070;28;20195;-42
2021/10/01 13:45:02;;;;;;;1.88;0.70;;;;;;;;;;5030839;28;20203;-41
2021/10/01 13:47:31;;;;;;;0.85;0.65;;;;;;;;;;5022679;28;20200;-42
2021/10/01 13:49:57;;;;;;;1.30;0.73;;;;;;;;;;5022002;28;20184;-41
2021/10/01 13:52:23;;;;;;;2.35;0.75;;;;;;;;;;5022309;28;20606;-41
2021/10/01 13:54:49;;;;;;;4.25;0.80;;;;;;;;;;5026119;28;20184;-42
2021/10/01 13:57:15;;;;;;;0.57;0.40;;;;;;;;;;5024239;28;20183;-42
2021/10/01 13:59:42;;;;;;;0.70;0.60;;;;;;;;;;5024579;28;20208;-42
2021/10/01 14:02:09;;;;;;;3.95;0.70;;;;;;;;;;5024223;28;20184;-42
2021/10/01 14:04:35;;;;;;;0.93;0.60;;;;;;;;;;5026858;28;20655;-41
2021/10/01 14:07:01;;;;;;;0.80;0.57;;;;;;;;;;5021445;28;20263;-41
2021/10/01 14:09:27;;;;;;;0.63;0.57;;;;;;;;;;5025698;28;20180;-42
2021/10/01 14:11:53;;;;;;;1.15;0.70;;;;;;;;;;5033069;28;20195;-41
2021/10/01 14:14:19;;;;;;;1.95;0.70;;;;;;;;;;5023900;28;20180;-42
2021/10/01 14:16:45;;;;;;;0.85;0.77;;;;;;;;;;5024882;28;20275;-42
2021/10/01 14:19:11;;;;;;;1.00;0.80;;;;;;;;;;5017776;28;20460;-42
2021/10/01 14:21:37;;;;;;;1.48;0.88;;;;;;;;;;5018219;28;20193;-42
2021/10/01 14:24:03;;;;;;;1.58;0.70;;;;;;;;;;5033570;28;20580;-42
2021/10/01 14:26:30;;;;;;;1.95;1.00;;;;;;;;;;5033414;28;20173;-42
2021/10/01 14:28:56;;;;;;;1.70;1.00;;;;;;;;;;5034090;28;20209;-42
2021/10/01 14:31:22;;;;;;;1.25;1.15;;;;;;;;;;5024917;28;20177;-42
2021/10/01 14:33:48;;;;;;;1.48;0.95;;;;;;;;;;5029882;28;20183;-42
2021/10/01 14:36:14;;;;;;;0.95;0.90;;;;;;;;;;5036590;28;20195;-42
2021/10/01 14:38:40;;;;;;;1.85;0.70;;;;;;;;;;5026448;28;20216;-42
2021/10/01 14:41:06;;;;;;;0.95;0.85;;;;;;;;;;5025395;28;20258;-42
2021/10/01 14:43:33;;;;;;;3.28;1.50;;;;;;;;;;5023323;28;20191;-42
2021/10/01 14:45:59;;;;;;;3.55;1.80;;;;;;;;;;5016613;28;20215;-42
2021/10/01 14:48:25;;;;;;;2.83;1.75;;;;;;;;;;5021308;28;20192;-41
2021/10/01 14:50:52;;;;;;;3.92;1.50;;;;;;;;;;5020141;28;20180;-42
2021/10/01 14:53:17;;;;;;;5.70;2.50;;;;;;;;;;5016502;28;20199;-42
2021/10/01 14:55:43;;;;;;;4.05;2.70;;;;;;;;;;5028635;28;20210;-42
2021/10/01 14:58:10;;;;;;;5.75;2.60;;;;;;;;;;5028813;28;20241;-42
2021/10/01 15:00:36;;;;;;;2.30;1.90;;;;;;;;;;5023176;28;20518;-42
2021/10/01 15:03:03;;;;;;;3.03;1.60;;;;;;;;;;5029083;28;20218;-42
2021/10/01 15:05:30;;;;;;;3.40;1.60;;;;;;;;;;5030447;28;20268;-42
2021/10/01 15:07:57;;;;;;;5.05;2.00;;;;;;;;;;5017898;28;20187;-42
2021/10/01 15:10:23;;;;;;;4.63;1.73;;;;;;;;;;5024032;28;20187;-42
2021/10/01 15:12:49;;;;;;;5.07;1.42;;;;;;;;;;5021329;28;20188;-42
2021/10/01 15:15:16;;;;;;;2.03;1.60;;;;;;;;;;5035819;28;20183;-42
2021/10/01 15:17:42;;;;;;;2.22;1.65;;;;;;;;;;5029248;28;20239;-42
2021/10/01 15:20:09;;;;;;;6.65;1.88;;;;;;;;;;5016384;28;20560;-42
2021/10/01 15:22:35;;;;;;;4.85;1.80;;;;;;;;;;5019346;28;20259;-42
2021/10/01 15:25:01;;;;;;;4.95;1.65;;;;;;;;;;5034822;28;20571;-42
2021/10/01 15:27:27;;;;;;;4.03;1.50;;;;;;;;;;5031331;28;20176;-42
2021/10/01 15:29:59;;;;;;;4.20;1.50;;;;;;;;;;5016064;28;20187;-42
2021/10/01 15:32:25;;;;;;;2.53;1.35;;;;;;;;;;5018025;28;20188;-42
2021/10/01 15:34:51;;;;;;;2.10;1.20;;;;;;;;;;5022820;28;20193;-42
2021/10/01 15:37:18;;;;;;;2.25;1.30;;;;;;;;;;5031857;28;20186;-42
2021/10/01 15:39:44;;;;;;;3.70;1.20;;;;;;;;;;5015859;28;20184;-42
2021/10/01 15:42:10;;;;;;;3.50;1.40;;;;;;;;;;5015912;28;20207;-42
2021/10/01 15:44:36;;;;;;;5.72;1.42;;;;;;;;;;5015281;28;20216;-42
2021/10/01 15:47:08;;;;;;;3.28;1.60;;;;;;;;;;5030418;28;20255;-42
2021/10/01 15:49:35;;;;;;;1.75;1.30;;;;;;;;;;5035227;28;20179;-42
2021/10/01 15:52:01;;;;;;;4.15;1.30;;;;;;;;;;5034831;28;20213;-42
2021/10/01 15:54:27;;;;;;;1.35;1.13;;;;;;;;;;5026945;28;20481;-42
2021/10/01 15:56:53;;;;;;;1.23;1.13;;;;;;;;;;5016352;28;20200;-42
2021/10/01 15:59:19;;;;;;;1.38;1.10;;;;;;;;;;5033165;28;20191;-42
2021/10/01 16:01:45;;;;;;;2.00;1.30;;;;;;;;;;5034261;28;20199;-42
2021/10/01 16:04:11;;;;;;;7.10;1.55;;;;;;;;;;5030911;28;20228;-42
2021/10/01 16:06:37;;;;;;;2.60;1.40;;;;;;;;;;5021206;28;20188;-42
2021/10/01 16:09:03;;;;;;;1.55;1.13;;;;;;;;;;5031257;28;20221;-42
2021/10/01 16:11:29;;;;;;;1.83;1.33;;;;;;;;;;5027425;28;20193;-42
2021/10/01 16:13:55;;;;;;;1.67;1.20;;;;;;;;;;5015852;28;20184;-42
2021/10/01 16:16:21;;;;;;;2.88;1.27;;;;;;;;;;5026051;28;20188;-42
2021/10/01 16:18:47;;;;;;;3.50;1.00;;;;;;;;;;5020861;28;20173;-42
2021/10/01 16:21:13;;;;;;;1.52;1.27;;;;;;;;;;5015391;28;20828;-42
2021/10/01 16:23:39;;;;;;;2.58;1.00;;;;;;;;;;5020779;28;20199;-42